createdAt,value
2023-02-11T00:01:30.420Z,17.73
2023-02-11T00:03:28.861Z,13.37
2023-02-11T00:05:24.407Z,22.97
2023-02-11T00:07:19.757Z,15.17
2023-02-11T00:09:16.629Z,22.83
2023-02-11T00:11:16.519Z,20.53
2023-02-11T00:13:12.160Z,18.37
2023-02-11T00:15:08.222Z,16.83
2023-02-11T00:17:03.900Z,13.80
2023-02-11T00:19:03.021Z,12.30
2023-02-11T00:20:59.537Z,22.40
2023-02-11T00:22:59.077Z,16.60
2023-02-11T00:24:57.130Z,25.80
2023-02-11T00:26:53.020Z,23.73
2023-02-11T00:28:50.167Z,20.13
2023-02-11T00:30:45.498Z,26.40
2023-02-11T00:32:42.723Z,17.33
2023-02-11T00:34:41.066Z,12.30
2023-02-11T00:36:36.708Z,19.80
2023-02-11T00:38:32.141Z,16.43
2023-02-11T00:40:27.707Z,19.33
2023-02-11T00:42:23.076Z,16.13
2023-02-11T00:44:19.631Z,21.70
2023-02-11T00:46:15.850Z,15.50
2023-02-11T00:48:12.056Z,8.97
2023-02-11T00:50:10.234Z,11.60
2023-02-11T00:52:05.383Z,13.40
2023-02-11T00:54:00.788Z,22.80
2023-02-11T00:55:55.817Z,18.00
2023-02-11T00:57:51.188Z,16.13
2023-02-11T00:59:46.162Z,18.23
2023-02-11T01:01:41.497Z,24.90
2023-02-11T01:03:37.157Z,23.03
2023-02-11T01:05:35.515Z,19.20
2023-02-11T01:07:31.485Z,20.27
2023-02-11T01:09:26.738Z,12.27
2023-02-11T01:11:23.791Z,13.13
2023-02-11T01:13:19.376Z,16.60
2023-02-11T01:15:16.495Z,18.20
2023-02-11T01:17:11.511Z,13.57
2023-02-11T01:19:06.786Z,10.77
2023-02-11T01:21:04.354Z,13.03
2023-02-11T01:22:59.349Z,16.50
2023-02-11T01:24:54.614Z,16.17
2023-02-11T01:26:49.545Z,12.53
2023-02-11T01:28:44.941Z,14.17
2023-02-11T01:30:39.989Z,15.87
2023-02-11T01:32:35.073Z,24.73
2023-02-11T01:34:30.359Z,16.30
2023-02-11T01:36:27.892Z,15.20
2023-02-11T01:38:25.125Z,16.67
2023-02-11T01:40:20.870Z,22.20
2023-02-11T01:42:18.861Z,17.17
2023-02-11T01:44:30.812Z,14.13
2023-02-11T01:46:37.060Z,24.63
2023-02-11T01:48:36.109Z,29.37
2023-02-11T01:50:31.445Z,15.13
2023-02-11T01:52:34.297Z,11.07
2023-02-11T01:54:45.198Z,13.60
2023-02-11T01:56:57.505Z,25.57
2023-02-11T01:58:54.585Z,18.23
2023-02-11T02:00:50.345Z,17.67
2023-02-11T02:02:51.869Z,23.83
2023-02-11T02:04:52.355Z,19.20
2023-02-11T02:06:53.736Z,17.00
2023-02-11T02:08:57.932Z,21.57
2023-02-11T02:10:56.616Z,16.97
2023-02-11T02:12:51.938Z,20.87
2023-02-11T02:14:46.860Z,18.03
2023-02-11T02:16:42.342Z,21.63
2023-02-11T02:18:46.144Z,19.57
2023-02-11T02:21:10.968Z,14.47
2023-02-11T02:23:41.273Z,22.20
2023-02-11T02:26:33.064Z,9.93
2023-02-11T02:28:54.626Z,27.27
2023-02-11T02:31:07.560Z,25.97
2023-02-11T02:33:27.133Z,25.87
2023-02-11T02:35:37.701Z,23.97
2023-02-11T02:37:39.385Z,23.40
2023-02-11T02:39:38.489Z,24.40
2023-02-11T02:41:37.263Z,16.00
2023-02-11T02:43:34.037Z,25.97
2023-02-11T02:45:29.501Z,26.70
2023-02-11T02:47:25.178Z,24.57
2023-02-11T02:49:22.669Z,24.30
2023-02-11T02:51:35.672Z,25.57
2023-02-11T02:53:37.962Z,25.77
2023-02-11T02:55:47.240Z,21.20
2023-02-11T02:57:59.288Z,17.53
2023-02-11T03:00:09.970Z,26.10
2023-02-11T03:02:16.517Z,11.13
2023-02-11T03:04:20.178Z,11.83
2023-02-11T03:06:23.174Z,23.93
2023-02-11T03:08:26.977Z,15.57
2023-02-11T03:10:26.645Z,26.60
2023-02-11T03:12:24.243Z,15.30
2023-02-11T03:14:22.020Z,25.93
2023-02-11T03:16:20.571Z,27.00
2023-02-11T03:18:18.627Z,15.07
2023-02-11T03:20:17.300Z,15.70
2023-02-11T03:22:22.850Z,19.77
2023-02-11T03:24:23.365Z,22.03
2023-02-11T03:26:26.060Z,12.47
2023-02-11T03:28:30.603Z,26.87
2023-02-11T03:30:31.287Z,26.77
2023-02-11T03:32:31.495Z,12.10
2023-02-11T03:34:32.388Z,12.43
2023-02-11T03:36:34.903Z,13.53
2023-02-11T03:38:36.928Z,22.27
2023-02-11T03:40:38.049Z,25.27
2023-02-11T03:42:38.414Z,18.40
2023-02-11T03:44:39.336Z,25.10
2023-02-11T03:46:40.112Z,18.90
2023-02-11T03:48:41.578Z,27.00
2023-02-11T03:50:38.890Z,27.40
2023-02-11T03:52:35.475Z,18.13
2023-02-11T03:54:34.329Z,15.00
2023-02-11T03:56:35.408Z,27.23
2023-02-11T03:58:30.436Z,22.60
2023-02-11T04:00:33.135Z,21.77
2023-02-11T04:02:31.705Z,26.50
2023-02-11T04:04:27.204Z,20.57
2023-02-11T04:06:22.345Z,27.27
2023-02-11T04:08:17.660Z,20.63
2023-02-11T04:10:15.593Z,27.53
2023-02-11T04:12:10.858Z,24.87
2023-02-11T04:14:06.209Z,16.77
2023-02-11T04:16:01.293Z,27.93
2023-02-11T04:17:53.948Z,27.47
2023-02-11T04:19:48.853Z,26.20
2023-02-11T04:21:43.764Z,28.53
2023-02-11T04:23:39.114Z,28.97
2023-02-11T04:25:36.616Z,28.90
2023-02-11T04:27:31.941Z,22.87
2023-02-11T04:29:28.208Z,24.27
2023-02-11T04:31:23.578Z,24.53
2023-02-11T04:33:18.601Z,18.63
2023-02-11T04:35:13.902Z,23.47
2023-02-11T04:37:09.254Z,22.50
2023-02-11T04:39:04.339Z,23.37
2023-02-11T04:41:03.274Z,22.97
2023-02-11T04:42:58.182Z,30.77
2023-02-11T04:44:53.542Z,32.53
2023-02-11T04:46:48.496Z,22.80
2023-02-11T04:48:44.099Z,22.77
2023-02-11T04:50:39.341Z,20.17
2023-02-11T04:52:34.901Z,14.83
2023-02-11T04:54:29.949Z,24.43
2023-02-11T04:56:27.819Z,26.20
2023-02-11T04:58:23.088Z,27.50
2023-02-11T05:00:19.469Z,33.33
2023-02-11T05:02:14.395Z,28.03
2023-02-11T05:04:09.704Z,33.33
2023-02-11T05:06:05.520Z,23.83
2023-02-11T05:08:00.781Z,34.30
2023-02-11T05:09:55.706Z,32.20
2023-02-11T05:11:53.689Z,27.77
2023-02-11T05:13:49.664Z,34.37
2023-02-11T05:15:44.929Z,30.47
2023-02-11T05:17:40.034Z,32.17
2023-02-11T05:19:35.551Z,26.23
2023-02-11T05:21:30.487Z,27.83
2023-02-11T05:23:25.390Z,28.43
2023-02-11T05:25:20.894Z,26.87
2023-02-11T05:27:18.486Z,26.57
2023-02-11T05:29:13.868Z,22.40
2023-02-11T05:31:09.351Z,17.13
2023-02-11T05:33:04.332Z,20.80
2023-02-11T05:34:59.557Z,20.33
2023-02-11T05:36:54.608Z,15.87
2023-02-11T05:38:50.947Z,19.83
2023-02-11T05:40:46.287Z,14.87
2023-02-11T05:42:44.275Z,39.37
2023-02-11T05:44:39.536Z,30.20
2023-02-11T05:46:34.880Z,20.77
2023-02-11T05:48:29.997Z,25.53
2023-02-11T05:50:25.923Z,27.00
2023-02-11T05:52:20.906Z,26.80
2023-02-11T05:54:16.340Z,35.53
2023-02-11T05:56:11.638Z,34.23
2023-02-11T05:58:10.638Z,22.83
2023-02-11T06:00:06.264Z,30.10
2023-02-11T06:02:02.065Z,16.53
2023-02-11T06:03:57.104Z,17.03
2023-02-11T06:05:52.616Z,36.10
2023-02-11T06:07:47.888Z,25.17
2023-02-11T06:09:43.404Z,29.27
2023-02-11T06:11:38.306Z,32.03
2023-02-11T06:13:36.218Z,34.30
2023-02-11T06:15:31.229Z,41.70
2023-02-11T06:17:26.637Z,28.00
2023-02-11T06:19:21.649Z,24.30
2023-02-11T06:21:16.988Z,28.00
2023-02-11T06:23:11.966Z,30.37
2023-02-11T06:25:07.955Z,24.63
2023-02-11T06:27:03.035Z,36.83
2023-02-11T06:29:02.523Z,35.03
2023-02-11T06:30:57.779Z,32.23
2023-02-11T06:32:52.850Z,36.97
2023-02-11T06:34:48.283Z,38.87
2023-02-11T06:36:44.036Z,25.33
2023-02-11T06:38:39.352Z,39.07
2023-02-11T06:40:34.244Z,41.03
2023-02-11T06:42:29.596Z,42.67
2023-02-11T06:44:27.373Z,35.83
2023-02-11T06:46:22.338Z,34.77
2023-02-11T06:48:17.569Z,19.93
2023-02-11T06:50:16.694Z,17.67
2023-02-11T06:52:11.953Z,29.03
2023-02-11T06:54:08.663Z,20.07
2023-02-11T06:56:06.115Z,21.37
2023-02-11T06:58:01.389Z,30.73
2023-02-11T06:59:59.567Z,28.70
2023-02-11T07:01:55.159Z,40.93
2023-02-11T07:03:50.809Z,31.90
2023-02-11T07:05:46.131Z,31.77
2023-02-11T07:07:41.399Z,35.57
2023-02-11T07:09:37.333Z,15.77
2023-02-11T07:11:33.047Z,41.07
2023-02-11T07:13:28.700Z,40.03
2023-02-11T07:15:26.477Z,38.73
2023-02-11T07:17:22.065Z,38.00
2023-02-11T07:19:17.267Z,28.87
2023-02-11T07:21:15.121Z,34.00
2023-02-11T07:23:10.530Z,37.70
2023-02-11T07:25:08.305Z,36.53
2023-02-11T07:27:03.647Z,36.63
2023-02-11T07:28:59.280Z,37.77
2023-02-11T07:30:57.421Z,25.13
2023-02-11T07:32:52.706Z,42.87
2023-02-11T07:34:48.675Z,34.83
2023-02-11T07:36:43.737Z,19.87
2023-02-11T07:38:39.737Z,24.13
2023-02-11T07:40:34.708Z,40.07
2023-02-11T07:42:29.627Z,37.37
2023-02-11T07:44:25.342Z,33.47
2023-02-11T07:46:25.296Z,26.83
2023-02-11T07:48:20.599Z,26.37
2023-02-11T07:50:15.492Z,24.33
2023-02-11T07:52:10.753Z,37.60
2023-02-11T07:54:05.717Z,35.23
2023-02-11T07:56:01.050Z,29.03
2023-02-11T07:57:56.029Z,41.03
2023-02-11T07:59:50.923Z,23.37
2023-02-11T08:01:51.425Z,29.07
2023-02-11T08:03:46.645Z,44.57
2023-02-11T08:05:42.257Z,42.33
2023-02-11T08:07:37.558Z,38.63
2023-02-11T08:09:34.497Z,27.23
2023-02-11T08:11:31.224Z,29.00
2023-02-11T08:13:26.992Z,21.23
2023-02-11T08:15:21.950Z,27.23
2023-02-11T08:17:19.846Z,37.70
2023-02-11T08:19:16.630Z,23.97
2023-02-11T08:21:15.762Z,30.13
2023-02-11T08:23:11.028Z,30.90
2023-02-11T08:25:06.075Z,35.20
2023-02-11T08:27:01.305Z,36.17
2023-02-11T08:28:58.760Z,31.47
2023-02-11T08:30:54.056Z,31.10
2023-02-11T08:32:51.719Z,23.17
2023-02-11T08:34:48.659Z,36.37
2023-02-11T08:36:45.274Z,32.43
2023-02-11T08:38:40.969Z,36.13
2023-02-11T08:40:36.110Z,21.63
2023-02-11T08:42:31.078Z,31.40
2023-02-11T08:44:27.156Z,36.17
2023-02-11T08:46:22.893Z,25.30
2023-02-11T08:48:20.808Z,26.23
2023-02-11T08:50:15.801Z,27.47
2023-02-11T08:52:11.543Z,30.53
2023-02-11T08:54:10.155Z,16.07
2023-02-11T08:56:06.189Z,31.70
2023-02-11T08:58:01.135Z,25.77
2023-02-11T08:59:56.453Z,22.47
2023-02-11T09:01:51.842Z,26.40
2023-02-11T09:03:49.948Z,25.57
2023-02-11T09:05:45.707Z,21.77
2023-02-11T09:07:40.944Z,38.70
2023-02-11T09:09:36.442Z,34.37
2023-02-11T09:11:35.992Z,16.87
2023-02-11T09:13:32.890Z,41.90
2023-02-11T09:15:27.882Z,40.83
2023-02-11T09:17:23.175Z,19.67
2023-02-11T09:19:21.516Z,30.93
2023-02-11T09:21:18.924Z,24.67
2023-02-11T09:23:15.549Z,19.77
2023-02-11T09:25:12.513Z,34.07
2023-02-11T09:27:08.640Z,32.90
2023-02-11T09:29:04.382Z,27.00
2023-02-11T09:30:59.837Z,27.43
2023-02-11T09:32:55.208Z,35.53
2023-02-11T09:34:53.453Z,25.07
2023-02-11T09:36:48.433Z,34.80
2023-02-11T09:38:44.032Z,21.97
2023-02-11T09:40:42.535Z,37.73
2023-02-11T09:42:46.584Z,15.40
2023-02-11T09:44:47.010Z,32.70
2023-02-11T09:46:45.745Z,27.17
2023-02-11T09:48:44.582Z,31.47
2023-02-11T09:50:46.234Z,24.53
2023-02-11T09:52:47.300Z,33.47
2023-02-11T09:54:55.508Z,21.73
2023-02-11T09:56:50.481Z,18.80
2023-02-11T09:58:47.522Z,35.13
2023-02-11T10:00:48.120Z,21.03
2023-02-11T10:03:09.207Z,32.43
2023-02-11T10:05:22.141Z,32.20
2023-02-11T10:07:27.956Z,31.03
2023-02-11T10:09:39.774Z,36.33
2023-02-11T10:11:44.549Z,34.70
2023-02-11T10:13:50.366Z,28.40
2023-02-11T10:15:53.490Z,32.23
2023-02-11T10:18:10.034Z,36.70
2023-02-11T10:20:23.651Z,20.43
2023-02-11T10:22:25.905Z,29.27
2023-02-11T10:24:22.159Z,37.17
2023-02-11T10:26:20.190Z,35.07
2023-02-11T10:28:18.753Z,24.50
2023-02-11T10:30:25.158Z,39.17
2023-02-11T10:32:32.222Z,29.53
2023-02-11T10:34:27.794Z,24.70
2023-02-11T10:36:32.600Z,29.00
2023-02-11T10:38:30.816Z,32.53
2023-02-11T10:40:28.134Z,37.77
2023-02-11T10:42:23.829Z,30.60
2023-02-11T10:44:30.270Z,38.63
2023-02-11T10:46:29.503Z,35.53
2023-02-11T10:48:43.867Z,33.10
2023-02-11T10:50:39.709Z,27.17
2023-02-11T10:52:34.863Z,32.37
2023-02-11T10:54:32.758Z,37.30
2023-02-11T10:56:30.836Z,31.10
2023-02-11T10:58:29.253Z,34.10
2023-02-11T11:00:41.572Z,36.47
2023-02-11T11:02:44.107Z,31.73
2023-02-11T11:04:45.749Z,35.37
2023-02-11T11:06:40.784Z,37.57
2023-02-11T11:08:44.564Z,32.83
2023-02-11T11:10:46.965Z,32.70
2023-02-11T11:12:51.170Z,37.23
2023-02-11T11:14:57.200Z,35.97
2023-02-11T11:16:56.280Z,19.90
2023-02-11T11:18:53.417Z,21.17
2023-02-11T11:21:00.092Z,28.97
2023-02-11T11:23:10.749Z,26.27
2023-02-11T11:25:06.181Z,28.77
2023-02-11T11:27:05.461Z,18.93
2023-02-11T11:29:05.194Z,28.77
2023-02-11T11:31:02.182Z,27.77
2023-02-11T11:32:57.920Z,27.50
2023-02-11T11:34:55.679Z,34.73
2023-02-11T11:36:52.334Z,26.70
2023-02-11T11:38:55.136Z,31.87
2023-02-11T11:41:20.911Z,33.63
2023-02-11T11:43:23.862Z,39.03
2023-02-11T11:45:28.716Z,23.77
2023-02-11T11:47:30.979Z,32.90
2023-02-11T11:49:32.629Z,34.90
2023-02-11T11:51:29.034Z,27.63
2023-02-11T11:53:34.369Z,32.00
2023-02-11T11:55:35.947Z,26.00
2023-02-11T11:57:32.210Z,32.87
2023-02-11T11:59:31.284Z,27.43
2023-02-11T12:01:38.855Z,32.03
2023-02-11T12:04:17.349Z,34.67
2023-02-11T12:06:29.369Z,31.80
2023-02-11T12:08:30.623Z,29.63
2023-02-11T12:10:59.821Z,33.03
2023-02-11T12:13:08.564Z,28.80
2023-02-11T12:15:20.664Z,30.30
2023-02-11T12:17:32.589Z,30.60
2023-02-11T12:19:56.376Z,16.57
2023-02-11T12:21:59.175Z,30.33
2023-02-11T12:24:09.178Z,26.83
2023-02-11T12:26:14.153Z,29.00
2023-02-11T12:28:22.158Z,27.00
2023-02-11T12:30:35.423Z,20.17
2023-02-11T12:32:39.309Z,24.60
2023-02-11T12:34:58.457Z,26.33
2023-02-11T12:37:03.173Z,24.00
2023-02-11T12:39:10.325Z,23.67
2023-02-11T12:41:41.945Z,25.97
2023-02-11T12:43:37.303Z,20.90
2023-02-11T12:45:47.528Z,26.63
2023-02-11T12:47:53.831Z,25.00
2023-02-11T12:50:04.729Z,28.03
2023-02-11T12:52:26.293Z,21.30
2023-02-11T12:54:28.356Z,25.33
2023-02-11T12:56:31.130Z,26.57
2023-02-11T12:58:44.546Z,18.90
2023-02-11T13:00:52.148Z,18.50
2023-02-11T13:02:54.517Z,24.93
2023-02-11T13:04:57.341Z,23.03
2023-02-11T13:07:02.355Z,21.27
2023-02-11T13:09:07.219Z,20.87
2023-02-11T13:11:07.952Z,23.53
2023-02-11T13:13:21.564Z,19.93
2023-02-11T13:15:19.378Z,24.97
2023-02-11T13:17:24.421Z,23.93
2023-02-11T13:19:31.812Z,21.80
2023-02-11T13:21:37.329Z,21.83
2023-02-11T13:23:40.493Z,23.63
2023-02-11T13:25:43.603Z,23.47
2023-02-11T13:27:50.595Z,24.27
2023-02-11T13:30:23.242Z,22.43
2023-02-11T13:32:23.817Z,20.17
2023-02-11T13:34:40.957Z,23.67
2023-02-11T13:36:38.267Z,23.20
2023-02-11T13:38:37.357Z,21.80
2023-02-11T13:40:35.159Z,24.10
2023-02-11T13:42:31.291Z,22.87
2023-02-11T13:44:30.978Z,21.57
2023-02-11T13:46:30.680Z,21.33
2023-02-11T13:48:30.916Z,21.57
2023-02-11T13:50:28.246Z,18.13
2023-02-11T13:52:28.630Z,22.20
2023-02-11T13:54:35.609Z,19.47
2023-02-11T13:56:34.113Z,22.87
2023-02-11T13:58:40.017Z,18.40
2023-02-11T14:00:52.100Z,20.40
2023-02-11T14:03:00.015Z,17.73
2023-02-11T14:05:39.888Z,23.63
2023-02-11T14:07:50.729Z,21.43
2023-02-11T14:09:45.732Z,22.53
2023-02-11T14:11:50.998Z,23.27
2023-02-11T14:14:17.840Z,23.10
2023-02-11T14:16:35.336Z,24.27
2023-02-11T14:19:03.537Z,19.73
2023-02-11T14:21:14.862Z,24.67
2023-02-11T14:23:27.300Z,22.57
2023-02-11T14:25:26.718Z,22.47
2023-02-11T14:27:31.210Z,24.43
2023-02-11T14:29:35.391Z,24.87
2023-02-11T14:31:38.993Z,14.87
2023-02-11T14:34:07.444Z,20.60
2023-02-11T14:36:16.516Z,22.17
2023-02-11T14:38:22.977Z,17.10
2023-02-11T14:40:27.324Z,20.40
2023-02-11T14:42:26.953Z,20.30
2023-02-11T14:44:24.964Z,23.13
2023-02-11T14:46:22.585Z,23.83
2023-02-11T14:48:19.754Z,22.50
2023-02-11T14:50:28.793Z,25.30
2023-02-11T14:52:31.483Z,18.80
2023-02-11T14:54:30.325Z,23.43
2023-02-11T14:56:27.999Z,21.23
2023-02-11T14:58:25.698Z,22.30
2023-02-11T15:00:24.801Z,23.20
2023-02-11T15:02:27.521Z,24.13
2023-02-11T15:04:28.005Z,21.87
2023-02-11T15:06:33.283Z,20.57
2023-02-11T15:08:33.191Z,18.50
2023-02-11T15:10:35.819Z,20.40
2023-02-11T15:12:31.715Z,21.37
2023-02-11T15:14:29.853Z,21.23
2023-02-11T15:16:28.204Z,22.00
2023-02-11T15:18:28.303Z,21.73
2023-02-11T15:20:28.668Z,22.70
2023-02-11T15:22:26.441Z,21.70
2023-02-11T15:24:29.612Z,19.37
2023-02-11T15:26:24.957Z,20.47
2023-02-11T15:28:26.659Z,21.30
2023-02-11T15:30:29.191Z,23.37
2023-02-11T15:32:26.473Z,22.13
2023-02-11T15:34:21.599Z,23.40
2023-02-11T15:36:17.873Z,17.43
2023-02-11T15:38:15.582Z,20.13
2023-02-11T15:40:18.944Z,19.50
2023-02-11T15:42:28.277Z,20.57
2023-02-11T15:44:34.567Z,18.50
2023-02-11T15:46:39.470Z,19.80
2023-02-11T15:48:40.518Z,21.90
2023-02-11T15:50:40.494Z,19.90
2023-02-11T15:52:36.743Z,16.50
2023-02-11T15:54:34.321Z,16.47
2023-02-11T15:56:34.413Z,18.77
2023-02-11T15:58:29.621Z,18.60
2023-02-11T16:00:27.689Z,17.63
2023-02-11T16:02:28.469Z,18.73
2023-02-11T16:04:27.208Z,15.87
2023-02-11T16:06:24.659Z,16.10
2023-02-11T16:08:29.745Z,18.87
2023-02-11T16:10:30.718Z,17.90
2023-02-11T16:12:30.164Z,11.17
2023-02-11T16:14:32.436Z,18.40
2023-02-11T16:16:30.738Z,17.80
2023-02-11T16:18:38.710Z,15.70
2023-02-11T16:20:34.967Z,17.97
2023-02-11T16:22:38.128Z,17.80
2023-02-11T16:24:35.941Z,19.33
2023-02-11T16:26:39.246Z,17.17
2023-02-11T16:28:38.459Z,14.27
2023-02-11T16:30:37.455Z,16.30
2023-02-11T16:32:33.073Z,15.23
2023-02-11T16:34:36.630Z,16.57
2023-02-11T16:36:32.129Z,15.93
2023-02-11T16:38:29.426Z,14.67
2023-02-11T16:40:25.092Z,14.10
2023-02-11T16:42:20.770Z,14.43
2023-02-11T16:44:18.705Z,13.53
2023-02-11T16:48:41.085Z,12.77
2023-02-11T16:50:36.791Z,12.13
2023-02-11T16:52:33.244Z,12.77
2023-02-11T16:54:32.728Z,11.53
2023-02-11T16:56:28.682Z,12.73
2023-02-11T16:58:23.995Z,12.03
2023-02-11T17:00:26.749Z,12.20
2023-02-11T17:02:29.545Z,12.17
2023-02-11T17:04:30.206Z,12.20
2023-02-11T17:06:26.934Z,11.80
2023-02-11T17:08:22.963Z,12.50
2023-02-11T17:10:19.714Z,12.57
2023-02-11T17:12:15.152Z,12.90
2023-02-11T17:14:10.732Z,13.27
2023-02-11T17:16:08.489Z,11.90
2023-02-11T17:18:04.061Z,13.00
2023-02-11T17:19:59.677Z,10.60
2023-02-11T17:21:57.448Z,13.83
2023-02-11T17:23:52.351Z,14.80
2023-02-11T17:25:47.687Z,13.37
2023-02-11T17:27:42.672Z,12.57
2023-02-11T17:29:38.068Z,12.70
2023-02-11T17:31:35.953Z,12.63
2023-02-11T17:33:31.096Z,12.67
2023-02-11T17:35:26.425Z,13.80
2023-02-11T17:37:21.385Z,13.30
2023-02-11T17:39:16.777Z,12.80
2023-02-11T17:41:12.807Z,12.73
2023-02-11T17:43:08.097Z,12.00
2023-02-11T17:45:03.034Z,10.80
2023-02-11T17:47:01.014Z,9.17
2023-02-11T17:48:55.925Z,10.40
2023-02-11T17:50:50.869Z,11.73
2023-02-11T17:52:48.510Z,10.07
2023-02-11T17:54:43.480Z,9.87
2023-02-11T17:56:39.586Z,10.37
2023-02-11T17:58:34.620Z,10.63
2023-02-11T18:00:30.859Z,10.63
2023-02-11T18:02:28.786Z,11.47
2023-02-11T18:04:23.827Z,10.50
2023-02-11T18:06:19.452Z,10.47
2023-02-11T18:08:14.428Z,10.13
2023-02-11T18:10:11.612Z,10.57
2023-02-11T18:12:06.952Z,10.10
2023-02-11T18:14:03.138Z,10.80
2023-02-11T18:15:58.130Z,10.90
2023-02-11T18:17:55.639Z,10.47
2023-02-11T18:19:51.322Z,16.10
2023-02-11T18:21:48.828Z,9.43
2023-02-11T18:23:44.867Z,8.73
2023-02-11T18:25:44.326Z,8.50
2023-02-11T18:27:39.953Z,9.23
2023-02-11T18:29:35.608Z,9.07
2023-02-11T18:31:31.470Z,9.43
2023-02-11T18:33:30.551Z,8.70
2023-02-11T18:35:26.122Z,9.03
2023-02-11T18:37:21.402Z,8.07
2023-02-11T18:39:16.425Z,9.17
2023-02-11T18:41:11.883Z,8.73
2023-02-11T18:43:07.243Z,8.77
2023-02-11T18:45:02.884Z,9.10
2023-02-11T18:46:58.111Z,8.90
2023-02-11T18:48:56.437Z,8.87
2023-02-11T18:50:57.162Z,7.87
2023-02-11T18:52:52.532Z,9.00
2023-02-11T18:54:49.317Z,8.00
2023-02-11T18:56:44.622Z,9.20
2023-02-11T18:58:40.376Z,9.10
2023-02-11T19:00:36.352Z,8.90
2023-02-11T19:02:31.347Z,8.07
2023-02-11T19:04:29.527Z,9.33
2023-02-11T19:06:27.038Z,9.00
2023-02-11T19:08:22.294Z,8.70
2023-02-11T19:10:17.502Z,8.70
2023-02-11T19:12:12.789Z,8.93
2023-02-11T19:14:10.217Z,10.63
2023-02-11T19:16:11.302Z,10.10
2023-02-11T19:18:07.321Z,9.37
2023-02-11T19:20:06.043Z,8.60
2023-02-11T19:22:02.552Z,9.07
2023-02-11T19:23:57.494Z,9.83
2023-02-11T19:25:52.993Z,9.80
2023-02-11T19:27:48.676Z,9.70
2023-02-11T19:29:43.761Z,9.77
2023-02-11T19:31:39.592Z,9.10
2023-02-11T19:33:34.697Z,9.13
2023-02-11T19:35:32.300Z,8.23
2023-02-11T19:37:27.594Z,9.57
2023-02-11T19:39:24.062Z,10.57
2023-02-11T19:41:22.222Z,10.37
2023-02-11T19:43:17.147Z,10.40
2023-02-11T19:45:13.069Z,10.43
2023-02-11T19:47:10.318Z,9.67
2023-02-11T19:49:06.830Z,9.67
2023-02-11T19:51:13.048Z,10.00
2023-02-11T19:53:08.552Z,10.33
2023-02-11T19:55:03.837Z,9.63
2023-02-11T19:57:00.303Z,8.97
2023-02-11T19:58:55.165Z,8.43
2023-02-11T20:00:50.168Z,8.93
2023-02-11T20:02:47.142Z,8.90
2023-02-11T20:04:42.336Z,9.90
2023-02-11T20:06:40.223Z,9.43
2023-02-11T20:08:35.820Z,9.67
2023-02-11T20:10:30.889Z,10.03
2023-02-11T20:12:26.155Z,9.93
2023-02-11T20:14:21.158Z,9.97
2023-02-11T20:16:19.481Z,9.57
2023-02-11T20:18:14.860Z,8.60
2023-02-11T20:20:11.015Z,10.60
2023-02-11T20:22:08.578Z,8.60
2023-02-11T20:24:04.101Z,9.07
2023-02-11T20:25:59.037Z,9.60
2023-02-11T20:27:57.345Z,9.27
2023-02-11T20:29:52.792Z,9.20
2023-02-11T20:31:47.920Z,9.20
2023-02-11T20:33:44.444Z,8.67
2023-02-11T20:35:40.333Z,8.60
2023-02-11T20:37:38.779Z,8.80
2023-02-11T20:39:35.464Z,8.03
2023-02-11T20:41:34.365Z,9.37
2023-02-11T20:43:29.914Z,8.30
2023-02-11T20:45:25.122Z,8.43
2023-02-11T20:47:20.755Z,8.83
2023-02-11T20:49:18.896Z,9.20
2023-02-11T20:51:16.419Z,8.03
2023-02-11T20:53:14.325Z,8.37
2023-02-11T20:55:10.295Z,8.27
2023-02-11T20:57:05.633Z,8.90
2023-02-11T20:59:03.832Z,7.73
2023-02-11T21:00:59.242Z,8.07
2023-02-11T21:02:54.595Z,7.93
2023-02-11T21:04:52.961Z,7.23
2023-02-11T21:06:52.829Z,7.13
2023-02-11T21:08:51.111Z,8.37
2023-02-11T21:10:46.482Z,7.60
2023-02-11T21:12:42.118Z,7.37
2023-02-11T21:14:37.303Z,7.37
2023-02-11T21:16:34.994Z,7.90
2023-02-11T21:18:29.946Z,7.60
2023-02-11T21:20:27.400Z,7.80
2023-02-11T21:22:22.681Z,7.47
2023-02-11T21:24:26.010Z,7.17
2023-02-11T21:26:21.595Z,7.07
2023-02-11T21:28:18.964Z,7.80
2023-02-11T21:33:00.390Z,7.67
2023-02-11T21:35:01.267Z,8.10
2023-02-11T21:36:57.848Z,7.77
2023-02-11T21:38:57.886Z,9.80
2023-02-11T21:40:56.194Z,9.40
2023-02-11T21:42:51.796Z,7.47
2023-02-11T21:44:49.068Z,6.97
2023-02-11T21:46:45.702Z,7.67
2023-02-11T21:48:41.512Z,8.87
2023-02-11T21:50:41.392Z,8.50
2023-02-11T21:52:36.685Z,7.40
2023-02-11T21:54:32.266Z,7.67
2023-02-11T21:56:35.376Z,8.40
2023-02-11T21:58:30.430Z,8.07
2023-02-11T22:00:26.119Z,7.27
2023-02-11T22:02:21.153Z,7.87
2023-02-11T22:04:19.250Z,7.97
2023-02-11T22:06:16.915Z,7.70
2023-02-11T22:08:14.678Z,7.50
2023-02-11T22:10:11.123Z,7.97
2023-02-11T22:12:10.583Z,8.20
2023-02-11T22:14:05.940Z,8.03
2023-02-11T22:16:02.848Z,7.87
2023-02-11T22:17:57.854Z,7.67
2023-02-11T22:19:53.238Z,8.20
2023-02-11T22:21:48.171Z,8.00
2023-02-11T22:23:47.869Z,7.63
2023-02-11T22:25:57.706Z,7.20
2023-02-11T22:27:55.807Z,6.60
2023-02-11T22:29:53.054Z,7.93
2023-02-11T22:31:48.384Z,8.83
2023-02-11T22:33:45.922Z,8.37
2023-02-11T22:35:40.816Z,7.77
2023-02-11T22:37:36.116Z,7.90
2023-02-11T22:39:34.189Z,7.90
2023-02-11T22:41:30.370Z,7.73
2023-02-11T22:43:28.334Z,7.50
2023-02-11T22:45:23.407Z,7.83
2023-02-11T22:47:18.690Z,7.17
2023-02-11T22:49:19.129Z,7.43
2023-02-11T22:51:19.421Z,7.67
2023-02-11T22:53:22.432Z,7.43
2023-02-11T22:55:18.529Z,7.47
2023-02-11T22:57:15.066Z,7.50
2023-02-11T22:59:15.230Z,7.83
2023-02-11T23:01:10.518Z,7.77
2023-02-11T23:03:15.881Z,7.53
2023-02-11T23:05:11.759Z,8.10
2023-02-11T23:07:09.759Z,8.73
2023-02-11T23:09:08.622Z,7.70
2023-02-11T23:11:08.099Z,8.07
2023-02-11T23:13:03.580Z,8.73
2023-02-11T23:15:05.230Z,7.50
2023-02-11T23:17:02.119Z,8.47
2023-02-11T23:18:58.348Z,7.80
2023-02-11T23:20:56.468Z,8.60
2023-02-11T23:22:54.884Z,8.57
2023-02-11T23:24:50.647Z,8.63
2023-02-11T23:26:49.172Z,8.10
2023-02-11T23:28:48.281Z,7.70
2023-02-11T23:30:47.775Z,8.23
2023-02-11T23:32:45.525Z,7.60
2023-02-11T23:34:41.105Z,7.27
2023-02-11T23:36:36.411Z,7.30
2023-02-11T23:38:31.716Z,8.10
2023-02-11T23:40:26.977Z,7.47
2023-02-11T23:42:23.940Z,7.57
2023-02-11T23:44:21.094Z,7.23
2023-02-11T23:46:19.709Z,6.63
2023-02-11T23:48:14.748Z,7.80
2023-02-11T23:50:13.603Z,7.33
2023-02-11T23:52:08.953Z,7.13
2023-02-11T23:54:06.652Z,7.73
2023-02-11T23:55:59.320Z,7.40
2023-02-11T23:57:54.201Z,7.47
2023-02-11T23:59:54.545Z,6.90
